createdAt,value
2023-01-25T00:01:33.495Z,1.50
2023-01-25T00:03:33.458Z,2.00
2023-01-25T00:05:33.413Z,1.60
2023-01-25T00:07:33.379Z,1.50
2023-01-25T00:09:33.379Z,2.00
2023-01-25T00:11:33.364Z,1.30
2023-01-25T00:13:33.380Z,1.30
2023-01-25T00:15:33.380Z,1.70
2023-01-25T00:17:33.438Z,1.90
2023-01-25T00:19:33.387Z,1.60
2023-01-25T00:21:33.417Z,1.90
2023-01-25T00:23:33.408Z,1.60
2023-01-25T00:25:33.384Z,1.70
2023-01-25T00:27:33.386Z,1.70
2023-01-25T00:29:33.503Z,1.50
2023-01-25T00:31:33.505Z,1.70
2023-01-25T00:33:33.502Z,1.20
2023-01-25T00:35:33.379Z,1.20
2023-01-25T00:38:03.388Z,1.70
2023-01-25T00:40:03.415Z,1.20
2023-01-25T00:42:03.389Z,1.50
2023-01-25T00:44:03.409Z,1.30
2023-01-25T00:46:03.566Z,1.70
2023-01-25T00:48:03.387Z,1.80
2023-01-25T00:50:03.441Z,1.10
2023-01-25T00:52:03.378Z,1.60
2023-01-25T00:54:03.387Z,1.50
2023-01-25T00:56:03.575Z,1.30
2023-01-25T00:58:03.402Z,1.40
2023-01-25T01:00:03.403Z,1.40
2023-01-25T01:02:03.388Z,1.30
2023-01-25T01:04:05.033Z,1.50
2023-01-25T01:06:03.407Z,1.20
2023-01-25T01:08:03.397Z,1.50
2023-01-25T01:10:03.394Z,1.30
2023-01-25T01:12:03.415Z,1.20
2023-01-25T01:14:03.506Z,1.30
2023-01-25T01:16:03.407Z,1.40
2023-01-25T01:18:03.522Z,1.70
2023-01-25T01:20:03.426Z,0.90
2023-01-25T01:22:03.424Z,1.10
2023-01-25T01:24:03.476Z,0.80
2023-01-25T01:26:03.491Z,1.40
2023-01-25T01:28:03.518Z,1.50
2023-01-25T01:30:03.401Z,1.30
2023-01-25T01:32:03.493Z,1.50
2023-01-25T01:34:03.569Z,1.10
2023-01-25T01:36:03.440Z,1.30
2023-01-25T01:38:03.479Z,0.80
2023-01-25T01:40:03.528Z,1.30
2023-01-25T01:42:03.464Z,1.70
2023-01-25T01:44:03.478Z,1.10
2023-01-25T01:46:03.535Z,0.70
2023-01-25T01:48:03.486Z,1.50
2023-01-25T01:50:03.427Z,1.30
2023-01-25T01:52:03.439Z,1.40
2023-01-25T01:54:03.479Z,1.30
2023-01-25T01:56:03.425Z,1.20
2023-01-25T01:58:03.541Z,1.20
2023-01-25T02:00:03.412Z,1.10
2023-01-25T02:02:03.506Z,1.40
2023-01-25T02:04:03.450Z,1.00
2023-01-25T02:06:03.518Z,1.00
2023-01-25T02:08:03.559Z,1.30
2023-01-25T02:10:03.519Z,1.50
2023-01-25T02:14:11.759Z,1.40
2023-01-25T02:16:11.788Z,1.10
2023-01-25T02:18:11.735Z,1.20
2023-01-25T02:20:11.713Z,1.20
2023-01-25T02:22:11.831Z,1.50
2023-01-25T02:24:11.758Z,1.30
2023-01-25T02:26:11.820Z,1.40
2023-01-25T02:28:11.744Z,0.90
2023-01-25T02:30:11.677Z,1.20
2023-01-25T02:32:11.697Z,1.00
2023-01-25T02:34:11.680Z,1.40
2023-01-25T02:36:11.711Z,1.20
2023-01-25T02:38:11.801Z,0.90
2023-01-25T02:40:11.697Z,1.40
2023-01-25T02:42:11.718Z,1.20
2023-01-25T02:44:11.731Z,1.00
2023-01-25T02:46:11.758Z,0.60
2023-01-25T02:48:41.799Z,0.90
2023-01-25T02:50:41.695Z,1.00
2023-01-25T02:52:41.712Z,1.00
2023-01-25T02:54:41.713Z,0.90
2023-01-25T02:56:41.843Z,0.70
2023-01-25T02:58:41.722Z,1.10
2023-01-25T03:00:41.765Z,1.20
2023-01-25T03:02:41.760Z,0.80
2023-01-25T03:04:41.777Z,0.90
2023-01-25T03:06:41.723Z,0.80
2023-01-25T03:08:41.841Z,0.70
2023-01-25T03:10:41.752Z,0.70
2023-01-25T03:12:41.741Z,0.50
2023-01-25T03:14:41.772Z,0.80
2023-01-25T03:16:41.723Z,0.70
2023-01-25T03:18:41.752Z,0.60
2023-01-25T03:20:41.743Z,0.80
2023-01-25T03:22:41.748Z,1.00
2023-01-25T03:24:41.753Z,1.00
2023-01-25T03:26:41.750Z,0.90
2023-01-25T03:28:41.775Z,1.00
2023-01-25T03:30:41.728Z,1.20
2023-01-25T03:32:41.739Z,0.80
2023-01-25T03:34:41.805Z,0.90
2023-01-25T03:36:41.722Z,0.70
2023-01-25T03:38:41.793Z,0.90
2023-01-25T03:40:41.851Z,0.80
2023-01-25T03:42:41.765Z,1.00
2023-01-25T03:44:41.767Z,1.10
2023-01-25T03:46:41.808Z,1.00
2023-01-25T03:48:41.858Z,1.10
2023-01-25T03:50:41.771Z,0.80
2023-01-25T03:52:41.761Z,1.10
2023-01-25T03:54:41.771Z,0.90
2023-01-25T03:56:41.737Z,1.00
2023-01-25T03:58:41.804Z,1.30
2023-01-25T04:00:41.761Z,0.80
2023-01-25T04:02:41.878Z,1.00
2023-01-25T04:04:41.760Z,0.80
2023-01-25T04:06:41.772Z,0.70
2023-01-25T04:08:41.832Z,0.80
2023-01-25T04:10:41.743Z,1.10
2023-01-25T04:12:41.755Z,1.00
2023-01-25T04:14:44.793Z,0.90
2023-01-25T04:16:41.824Z,1.30
2023-01-25T04:18:41.767Z,0.90
2023-01-25T04:20:42.388Z,0.90
2023-01-25T04:22:41.734Z,0.50
2023-01-25T04:24:41.872Z,0.80
2023-01-25T04:26:41.765Z,0.90
2023-01-25T04:29:11.770Z,1.20
2023-01-25T04:31:11.845Z,0.70
2023-01-25T04:33:11.781Z,1.10
2023-01-25T04:35:11.948Z,1.10
2023-01-25T04:37:11.893Z,1.10
2023-01-25T04:39:11.779Z,1.20
2023-01-25T04:41:11.787Z,0.90
2023-01-25T04:43:11.787Z,1.20
2023-01-25T04:45:12.085Z,1.20
2023-01-25T04:47:11.794Z,1.20
2023-01-25T04:49:11.777Z,1.60
2023-01-25T04:51:11.785Z,1.10
2023-01-25T04:53:11.799Z,1.10
2023-01-25T04:55:12.097Z,1.00
2023-01-25T04:57:11.797Z,1.00
2023-01-25T04:59:11.792Z,1.50
2023-01-25T05:01:11.898Z,1.10
2023-01-25T05:03:11.827Z,1.00
2023-01-25T05:05:11.963Z,1.20
2023-01-25T05:07:11.846Z,1.30
2023-01-25T05:09:11.755Z,0.80
2023-01-25T05:11:11.900Z,0.80
2023-01-25T05:13:11.809Z,0.90
2023-01-25T05:15:12.104Z,1.30
2023-01-25T05:17:11.762Z,1.30
2023-01-25T05:19:12.194Z,1.20
2023-01-25T05:21:11.763Z,0.90
2023-01-25T05:23:11.824Z,1.20
2023-01-25T05:25:12.006Z,1.00
2023-01-25T05:27:11.810Z,0.80
2023-01-25T05:29:11.793Z,0.80
2023-01-25T05:31:11.843Z,1.10
2023-01-25T05:33:11.869Z,1.10
2023-01-25T05:35:11.986Z,1.40
2023-01-25T05:37:11.819Z,0.80
2023-01-25T05:39:11.815Z,1.20
2023-01-25T05:41:11.828Z,0.90
2023-01-25T05:43:11.798Z,1.10
2023-01-25T05:45:11.990Z,1.10
2023-01-25T05:47:11.814Z,0.70
2023-01-25T05:49:11.930Z,0.90
2023-01-25T05:51:11.801Z,0.80
2023-01-25T05:53:11.777Z,1.20
2023-01-25T05:55:14.232Z,1.30
2023-01-25T05:57:11.811Z,1.60
2023-01-25T05:59:11.802Z,0.80
2023-01-25T06:01:11.809Z,1.10
2023-01-25T06:03:11.957Z,1.20
2023-01-25T06:05:11.960Z,1.00
2023-01-25T06:07:11.794Z,1.50
2023-01-25T06:09:11.960Z,1.10
2023-01-25T06:11:11.785Z,0.90
2023-01-25T06:13:41.821Z,0.90
2023-01-25T06:15:41.802Z,0.80
2023-01-25T06:17:41.808Z,1.10
2023-01-25T06:19:41.836Z,1.40
2023-01-25T06:21:41.842Z,1.00
2023-01-25T06:23:44.177Z,1.40
2023-01-25T06:25:41.925Z,1.40
2023-01-25T06:27:41.827Z,0.90
2023-01-25T06:29:41.816Z,1.10
2023-01-25T06:31:41.876Z,0.80
2023-01-25T06:33:41.835Z,0.90
2023-01-25T06:35:42.137Z,1.20
2023-01-25T06:37:41.791Z,1.30
2023-01-25T06:39:41.824Z,1.10
2023-01-25T06:41:41.812Z,1.20
2023-01-25T06:43:41.852Z,0.70
2023-01-25T06:45:41.978Z,1.10
2023-01-25T06:47:41.800Z,1.10
2023-01-25T06:49:41.802Z,1.50
2023-01-25T06:51:41.839Z,1.20
2023-01-25T06:53:41.952Z,0.90
2023-01-25T06:55:41.854Z,0.70
2023-01-25T06:57:41.853Z,0.90
2023-01-25T06:59:41.822Z,1.20
2023-01-25T07:01:41.859Z,1.20
2023-01-25T07:03:41.835Z,1.00
2023-01-25T07:05:41.881Z,1.70
2023-01-25T07:07:41.954Z,1.30
2023-01-25T07:09:41.841Z,1.50
2023-01-25T07:11:41.882Z,1.60
2023-01-25T07:13:41.813Z,1.10
2023-01-25T07:15:41.830Z,1.40
2023-01-25T07:17:41.839Z,1.00
2023-01-25T07:19:41.854Z,1.00
2023-01-25T07:21:41.934Z,0.60
2023-01-25T07:23:41.842Z,0.70
2023-01-25T07:25:41.861Z,0.90
2023-01-25T07:27:41.868Z,0.70
2023-01-25T07:29:41.814Z,0.90
2023-01-25T07:31:41.938Z,0.80
2023-01-25T07:33:41.910Z,0.80
2023-01-25T07:35:41.845Z,0.80
2023-01-25T07:37:41.847Z,0.60
2023-01-25T07:39:41.865Z,1.20
2023-01-25T07:41:41.901Z,0.70
2023-01-25T07:43:41.834Z,0.80
2023-01-25T07:45:41.827Z,0.80
2023-01-25T07:47:41.909Z,1.40
2023-01-25T07:49:41.867Z,1.50
2023-01-25T07:51:41.875Z,1.10
2023-01-25T07:53:41.892Z,0.70
2023-01-25T07:55:41.891Z,1.30
2023-01-25T07:58:11.900Z,1.00
2023-01-25T08:00:11.884Z,0.70
2023-01-25T08:02:11.895Z,1.40
2023-01-25T08:04:11.985Z,0.80
2023-01-25T08:06:11.868Z,1.50
2023-01-25T08:08:11.958Z,1.20
2023-01-25T08:10:11.918Z,1.50
2023-01-25T08:12:11.960Z,1.00
2023-01-25T08:14:11.975Z,1.30
2023-01-25T08:16:11.894Z,1.50
2023-01-25T08:18:11.886Z,1.80
2023-01-25T08:20:11.979Z,1.60
2023-01-25T08:22:12.927Z,1.10
2023-01-25T08:24:11.981Z,1.00
2023-01-25T08:26:12.114Z,1.30
2023-01-25T08:28:11.936Z,0.70
2023-01-25T08:30:11.970Z,0.60
2023-01-25T08:32:11.890Z,0.60
2023-01-25T08:34:11.901Z,0.90
2023-01-25T08:36:12.023Z,1.10
2023-01-25T08:38:11.973Z,1.10
2023-01-25T08:40:12.165Z,1.00
2023-01-25T08:42:11.885Z,1.20
2023-01-25T08:44:11.996Z,1.20
2023-01-25T08:46:11.992Z,0.80
2023-01-25T08:48:12.173Z,1.40
2023-01-25T08:50:12.330Z,1.80
2023-01-25T08:52:11.954Z,1.20
2023-01-25T08:54:12.103Z,1.50
2023-01-25T08:56:11.989Z,1.50
2023-01-25T08:58:11.979Z,1.60
2023-01-25T09:00:12.287Z,1.70
2023-01-25T09:02:11.966Z,2.30
2023-01-25T09:04:11.989Z,1.80
2023-01-25T09:08:22.870Z,1.30
2023-01-25T09:10:22.850Z,1.20
2023-01-25T09:12:22.825Z,1.40
2023-01-25T09:14:22.829Z,0.90
2023-01-25T09:16:22.964Z,1.40
2023-01-25T09:18:22.861Z,1.30
2023-01-25T09:20:22.840Z,1.10
2023-01-25T09:22:22.835Z,0.90
2023-01-25T09:24:22.856Z,1.50
2023-01-25T09:26:22.832Z,1.40
2023-01-25T09:28:22.956Z,1.10
2023-01-25T09:30:33.584Z,0.90
2023-01-25T09:32:22.880Z,0.70
2023-01-25T09:34:22.854Z,1.00
2023-01-25T09:36:22.906Z,1.10
2023-01-25T09:38:22.913Z,1.00
2023-01-25T09:40:22.868Z,1.10
2023-01-25T09:42:22.863Z,1.00
2023-01-25T09:44:22.899Z,1.00
2023-01-25T09:46:22.923Z,0.70
2023-01-25T09:48:22.883Z,1.00
2023-01-25T09:50:22.828Z,0.90
2023-01-25T09:52:22.839Z,1.10
2023-01-25T09:54:22.849Z,0.70
2023-01-25T09:56:22.888Z,0.70
2023-01-25T09:58:22.879Z,1.00
2023-01-25T10:00:22.949Z,1.10
2023-01-25T10:02:23.098Z,1.40
2023-01-25T10:04:22.881Z,0.80
2023-01-25T10:06:22.905Z,1.10
2023-01-25T10:08:23.089Z,1.50
2023-01-25T10:10:22.859Z,1.50
2023-01-25T10:12:22.867Z,1.40
2023-01-25T10:14:22.857Z,1.20
2023-01-25T10:16:25.793Z,1.00
2023-01-25T10:18:22.914Z,1.50
2023-01-25T10:20:22.860Z,1.50
2023-01-25T10:22:22.889Z,1.70
2023-01-25T10:24:52.944Z,1.60
2023-01-25T10:26:52.939Z,1.50
2023-01-25T10:28:52.905Z,1.20
2023-01-25T10:30:52.938Z,1.70
2023-01-25T10:32:56.129Z,1.70
2023-01-25T10:34:56.402Z,1.40
2023-01-25T10:36:52.883Z,1.30
2023-01-25T10:38:52.910Z,1.50
2023-01-25T10:40:53.027Z,1.20
2023-01-25T10:42:52.891Z,1.40
2023-01-25T10:44:52.946Z,1.60
2023-01-25T10:46:53.059Z,1.60
2023-01-25T10:48:52.882Z,1.60
2023-01-25T10:50:52.905Z,1.70
2023-01-25T10:52:53.003Z,1.30
2023-01-25T10:54:52.898Z,1.30
2023-01-25T10:56:52.884Z,1.70
2023-01-25T10:58:53.009Z,1.40
2023-01-25T11:00:52.912Z,1.20
2023-01-25T11:02:52.945Z,1.00
2023-01-25T11:04:52.939Z,0.90
2023-01-25T11:06:53.132Z,1.40
2023-01-25T11:08:55.872Z,0.90
2023-01-25T11:10:52.904Z,0.80
2023-01-25T11:12:52.996Z,0.90
2023-01-25T11:14:52.900Z,1.00
2023-01-25T11:16:52.918Z,0.70
2023-01-25T11:18:52.897Z,1.20
2023-01-25T11:20:53.007Z,0.90
2023-01-25T11:22:52.911Z,0.90
2023-01-25T11:24:52.936Z,1.20
2023-01-25T11:26:53.009Z,1.20
2023-01-25T11:28:52.966Z,1.10
2023-01-25T11:30:54.841Z,1.20
2023-01-25T11:32:53.090Z,1.20
2023-01-25T11:34:52.908Z,1.00
2023-01-25T11:36:52.951Z,1.40
2023-01-25T11:38:53.043Z,1.70
2023-01-25T11:40:52.967Z,1.30
2023-01-25T11:42:52.934Z,1.80
2023-01-25T11:44:53.028Z,1.10
2023-01-25T11:46:52.940Z,1.30
2023-01-25T11:48:52.912Z,1.20
2023-01-25T11:50:52.927Z,1.30
2023-01-25T11:52:52.896Z,1.70
2023-01-25T11:54:52.887Z,1.10
2023-01-25T11:56:52.997Z,1.30
2023-01-25T11:58:52.966Z,1.20
2023-01-25T12:00:52.936Z,0.90
2023-01-25T12:02:52.986Z,0.90
2023-01-25T12:04:52.945Z,0.80
2023-01-25T12:06:52.907Z,1.60
2023-01-25T12:09:22.922Z,1.70
2023-01-25T12:11:22.997Z,1.10
2023-01-25T12:13:22.942Z,0.90
2023-01-25T12:15:22.927Z,1.10
2023-01-25T12:17:23.009Z,0.70
2023-01-25T12:19:23.186Z,1.40
2023-01-25T12:21:30.767Z,1.10
2023-01-25T12:23:23.014Z,1.40
2023-01-25T12:25:22.915Z,1.30
2023-01-25T12:27:23.985Z,1.20
2023-01-25T12:29:22.917Z,1.50
2023-01-25T12:31:23.078Z,1.50
2023-01-25T12:33:22.951Z,0.90
2023-01-25T12:35:22.977Z,1.30
2023-01-25T12:37:22.967Z,1.50
2023-01-25T12:39:23.070Z,0.90
2023-01-25T12:41:22.985Z,1.20
2023-01-25T12:43:23.097Z,1.10
2023-01-25T12:45:23.113Z,0.90
2023-01-25T12:47:22.958Z,0.90
2023-01-25T12:49:23.013Z,1.40
2023-01-25T12:51:22.946Z,1.40
2023-01-25T12:53:22.980Z,1.30
2023-01-25T12:55:23.046Z,1.30
2023-01-25T12:57:22.952Z,1.10
2023-01-25T12:59:23.019Z,1.60
2023-01-25T13:01:23.039Z,1.10
2023-01-25T13:03:23.025Z,1.50
2023-01-25T13:05:22.951Z,1.30
2023-01-25T13:07:22.938Z,0.80
2023-01-25T13:09:22.968Z,1.00
2023-01-25T13:11:23.010Z,1.30
2023-01-25T13:13:23.015Z,1.10
2023-01-25T13:15:22.953Z,1.30
2023-01-25T13:17:22.968Z,0.70
2023-01-25T13:19:22.974Z,1.10
2023-01-25T13:21:22.975Z,1.00
2023-01-25T13:23:22.929Z,1.10
2023-01-25T13:25:23.022Z,1.10
2023-01-25T13:27:22.979Z,0.70
2023-01-25T13:29:22.986Z,0.70
2023-01-25T13:31:23.027Z,0.80
2023-01-25T13:33:23.072Z,1.20
2023-01-25T13:35:23.082Z,1.50
2023-01-25T13:37:23.051Z,1.10
2023-01-25T13:39:23.001Z,1.20
2023-01-25T13:41:23.041Z,0.80
2023-01-25T13:43:22.953Z,0.90
2023-01-25T13:45:23.033Z,0.80
2023-01-25T13:47:22.975Z,1.00
2023-01-25T13:49:23.029Z,1.00
2023-01-25T13:51:23.034Z,1.00
2023-01-25T13:53:52.953Z,1.00
2023-01-25T13:55:53.031Z,1.00
2023-01-25T13:57:52.965Z,1.10
2023-01-25T13:59:54.319Z,0.80
2023-01-25T14:01:52.988Z,1.10
2023-01-25T14:03:53.010Z,0.90
2023-01-25T14:05:52.948Z,1.00
2023-01-25T14:07:52.988Z,0.90
2023-01-25T14:09:53.327Z,0.80
2023-01-25T14:11:52.995Z,0.90
2023-01-25T14:13:52.973Z,0.80
2023-01-25T14:15:53.010Z,1.00
2023-01-25T14:17:52.997Z,0.80
2023-01-25T14:19:52.975Z,0.80
2023-01-25T14:21:52.970Z,0.80
2023-01-25T14:23:53.069Z,1.00
2023-01-25T14:25:52.968Z,1.10
2023-01-25T14:27:52.979Z,0.80
2023-01-25T14:29:53.006Z,0.90
2023-01-25T14:31:53.082Z,0.80
2023-01-25T14:33:53.003Z,0.80
2023-01-25T14:35:56.484Z,1.20
2023-01-25T14:37:52.982Z,1.20
2023-01-25T14:39:53.104Z,1.00
2023-01-25T14:42:00.994Z,1.00
2023-01-25T14:43:53.000Z,0.80
2023-01-25T14:45:53.013Z,0.90
2023-01-25T14:47:59.416Z,0.60
2023-01-25T14:49:52.994Z,0.70
2023-01-25T14:51:53.009Z,0.50
2023-01-25T14:53:52.983Z,0.80
2023-01-25T14:55:53.024Z,0.60
2023-01-25T14:57:53.028Z,0.90
2023-01-25T14:59:52.975Z,0.70
2023-01-25T15:01:53.058Z,1.30
2023-01-25T15:03:52.985Z,1.10
2023-01-25T15:05:53.027Z,0.80
2023-01-25T15:07:53.061Z,0.60
2023-01-25T15:09:53.106Z,1.00
2023-01-25T15:11:53.095Z,0.90
2023-01-25T15:13:53.047Z,0.80
2023-01-25T15:15:53.027Z,0.60
2023-01-25T15:17:53.022Z,0.60
2023-01-25T15:19:53.050Z,0.90
2023-01-25T15:21:53.020Z,1.00
2023-01-25T15:23:53.050Z,0.80
2023-01-25T15:25:53.093Z,0.50
2023-01-25T15:27:53.107Z,0.70
2023-01-25T15:29:53.139Z,1.10
2023-01-25T15:31:53.114Z,0.60
2023-01-25T15:33:53.110Z,0.70
2023-01-25T15:35:52.994Z,0.90
2023-01-25T15:38:23.198Z,0.60
2023-01-25T15:40:23.132Z,0.60
2023-01-25T15:42:23.130Z,0.70
2023-01-25T15:44:23.155Z,0.70
2023-01-25T15:46:23.011Z,0.50
2023-01-25T15:48:23.062Z,0.80
2023-01-25T15:50:23.156Z,0.90
2023-01-25T15:52:23.009Z,0.90
2023-01-25T15:54:23.051Z,0.60
2023-01-25T15:56:23.134Z,0.90
2023-01-25T15:58:23.222Z,0.60
2023-01-25T16:00:23.170Z,0.80
2023-01-25T16:02:23.296Z,0.60
2023-01-25T16:04:23.315Z,0.60
2023-01-25T16:06:23.147Z,0.80
2023-01-25T16:08:17.053Z,0.70
2023-01-25T16:10:17.077Z,0.70
2023-01-25T16:12:17.006Z,0.50
2023-01-25T16:14:17.006Z,0.60
2023-01-25T16:16:17.022Z,1.00
2023-01-25T16:18:17.039Z,0.80
2023-01-25T16:20:17.037Z,1.00
2023-01-25T16:22:17.053Z,0.50
2023-01-25T16:24:17.007Z,0.50
2023-01-25T16:26:17.123Z,0.70
2023-01-25T16:28:17.124Z,0.80
2023-01-25T16:30:17.064Z,0.70
2023-01-25T16:32:17.072Z,0.90
2023-01-25T16:34:17.023Z,0.80
2023-01-25T16:36:17.089Z,0.60
2023-01-25T16:38:17.085Z,0.80
2023-01-25T16:40:17.110Z,0.90
2023-01-25T16:42:17.131Z,0.80
2023-01-25T16:44:17.149Z,0.90
2023-01-25T16:46:17.067Z,0.80
2023-01-25T16:48:17.052Z,0.70
2023-01-25T16:50:17.083Z,0.70
2023-01-25T16:52:17.058Z,0.70
2023-01-25T16:54:17.070Z,0.50
2023-01-25T16:56:17.034Z,0.70
2023-01-25T16:58:17.106Z,0.80
2023-01-25T17:00:17.182Z,0.80
2023-01-25T17:02:58.580Z,0.70
2023-01-25T17:04:47.099Z,0.80
2023-01-25T17:06:47.168Z,0.70
2023-01-25T17:08:47.138Z,1.00
2023-01-25T17:10:47.221Z,1.10
2023-01-25T17:12:47.085Z,0.60
2023-01-25T17:14:47.067Z,0.80
2023-01-25T17:16:47.073Z,0.90
2023-01-25T17:18:47.073Z,0.90
2023-01-25T17:20:47.128Z,0.60
2023-01-25T17:22:47.081Z,0.50
2023-01-25T17:24:47.143Z,1.30
2023-01-25T17:26:47.194Z,1.00
2023-01-25T17:28:47.146Z,0.90
2023-01-25T17:30:47.213Z,1.00
2023-01-25T17:32:47.073Z,0.90
2023-01-25T17:34:47.080Z,0.60
2023-01-25T17:36:47.105Z,0.80
2023-01-25T17:38:47.066Z,0.80
2023-01-25T17:40:47.059Z,1.00
2023-01-25T17:42:47.043Z,0.70
2023-01-25T17:44:47.171Z,0.50
2023-01-25T17:46:47.100Z,1.00
2023-01-25T17:48:47.069Z,1.40
2023-01-25T17:50:47.086Z,0.90
2023-01-25T17:52:47.096Z,0.90
2023-01-25T17:54:47.110Z,0.70
2023-01-25T17:56:47.133Z,0.90
2023-01-25T17:58:47.085Z,1.00
2023-01-25T18:00:47.057Z,0.90
2023-01-25T18:02:47.103Z,1.40
2023-01-25T18:04:47.161Z,0.90
2023-01-25T18:06:47.052Z,0.80
2023-01-25T18:08:47.110Z,0.80
2023-01-25T18:10:47.123Z,0.70
2023-01-25T18:12:59.172Z,0.80
2023-01-25T18:14:47.088Z,0.80
2023-01-25T18:16:47.090Z,0.60
2023-01-25T18:18:47.094Z,0.60
2023-01-25T18:20:47.112Z,1.00
2023-01-25T18:22:47.119Z,0.80
2023-01-25T18:24:47.157Z,0.90
2023-01-25T18:26:47.043Z,0.90
2023-01-25T18:28:47.100Z,0.70
2023-01-25T18:30:47.080Z,0.80
2023-01-25T18:32:47.072Z,1.00
2023-01-25T18:34:47.155Z,1.30
2023-01-25T18:36:47.155Z,1.10
2023-01-25T18:38:47.152Z,0.90
2023-01-25T18:40:47.149Z,1.10
2023-01-25T18:42:47.175Z,0.90
2023-01-25T18:44:47.103Z,0.80
2023-01-25T18:47:17.075Z,0.70
2023-01-25T18:49:17.149Z,0.70
2023-01-25T18:51:17.161Z,1.10
2023-01-25T18:53:17.147Z,1.10
2023-01-25T18:55:17.240Z,0.60
2023-01-25T18:57:17.149Z,0.80
2023-01-25T18:59:17.168Z,0.70
2023-01-25T19:01:17.236Z,1.00
2023-01-25T19:03:17.136Z,0.90
2023-01-25T19:05:17.140Z,0.80
2023-01-25T19:07:17.068Z,1.30
2023-01-25T19:09:17.164Z,1.60
2023-01-25T19:11:17.057Z,0.90
2023-01-25T19:13:17.263Z,0.90
2023-01-25T19:15:17.126Z,0.80
2023-01-25T19:17:17.095Z,0.60
2023-01-25T19:19:17.197Z,0.60
2023-01-25T19:21:17.159Z,1.20
2023-01-25T19:23:17.159Z,0.90
2023-01-25T19:25:17.177Z,0.80
2023-01-25T19:27:17.203Z,0.90
2023-01-25T19:29:17.192Z,1.20
2023-01-25T19:31:17.236Z,0.90
2023-01-25T19:33:17.143Z,0.70
2023-01-25T19:35:17.147Z,0.90
2023-01-25T19:37:17.171Z,0.90
2023-01-25T19:39:17.172Z,0.90
2023-01-25T19:41:17.205Z,0.70
2023-01-25T19:43:17.250Z,1.00
2023-01-25T19:45:18.129Z,1.10
2023-01-25T19:47:17.162Z,1.00
2023-01-25T19:49:17.166Z,0.80
2023-01-25T19:51:17.231Z,1.00
2023-01-25T19:53:17.192Z,0.90
2023-01-25T19:55:17.183Z,0.80
2023-01-25T19:57:17.132Z,0.90
2023-01-25T19:59:17.235Z,1.20
2023-01-25T20:01:17.121Z,0.70
2023-01-25T20:03:17.201Z,0.90
2023-01-25T20:05:17.145Z,0.90
2023-01-25T20:07:17.115Z,0.70
2023-01-25T20:09:17.218Z,0.60
2023-01-25T20:11:17.201Z,0.80
2023-01-25T20:13:17.240Z,0.80
2023-01-25T20:15:17.309Z,0.80
2023-01-25T20:17:17.148Z,0.70
2023-01-25T20:19:17.133Z,0.80
2023-01-25T20:21:17.202Z,0.50
2023-01-25T20:23:17.195Z,0.90
2023-01-25T20:25:17.227Z,1.10
2023-01-25T20:27:17.261Z,0.80
2023-01-25T20:29:17.265Z,0.90
2023-01-25T20:31:47.221Z,0.80
2023-01-25T20:33:47.213Z,0.90
2023-01-25T20:35:47.206Z,0.70
2023-01-25T20:37:49.284Z,1.10
2023-01-25T20:39:47.193Z,0.70
2023-01-25T20:41:47.249Z,0.60
2023-01-25T20:43:47.139Z,0.80
2023-01-25T20:45:47.274Z,0.80
2023-01-25T20:47:47.223Z,0.60
2023-01-25T20:49:47.185Z,0.60
2023-01-25T20:51:47.291Z,0.40
2023-01-25T20:53:47.239Z,0.60
2023-01-25T20:55:47.275Z,0.60
2023-01-25T20:57:49.901Z,0.80
2023-01-25T20:59:47.155Z,0.90
2023-01-25T21:01:47.206Z,0.70
2023-01-25T21:03:47.194Z,1.00
2023-01-25T21:05:47.247Z,0.90
2023-01-25T21:07:47.135Z,0.70
2023-01-25T21:09:47.204Z,0.80
2023-01-25T21:11:47.268Z,0.80
2023-01-25T21:13:47.181Z,0.40
2023-01-25T21:15:47.175Z,0.70
2023-01-25T21:17:47.183Z,1.00
2023-01-25T21:19:47.213Z,0.70
2023-01-25T21:21:47.196Z,1.00
2023-01-25T21:23:47.260Z,0.80
2023-01-25T21:25:47.159Z,0.80
2023-01-25T21:27:47.278Z,0.70
2023-01-25T21:29:47.154Z,0.90
2023-01-25T21:31:47.162Z,0.60
2023-01-25T21:33:47.167Z,0.70
2023-01-25T21:35:47.181Z,0.70
2023-01-25T21:37:47.232Z,0.80
2023-01-25T21:39:47.219Z,0.70
2023-01-25T21:41:47.219Z,0.70
2023-01-25T21:43:47.276Z,1.00
2023-01-25T21:45:47.209Z,0.90
2023-01-25T21:47:47.235Z,0.80
2023-01-25T21:49:47.184Z,0.80
2023-01-25T21:51:47.250Z,0.90
2023-01-25T21:53:47.264Z,0.90
2023-01-25T21:55:47.296Z,0.60
2023-01-25T21:57:47.348Z,0.60
2023-01-25T21:59:47.194Z,0.40
2023-01-25T22:01:47.224Z,0.70
2023-01-25T22:03:47.206Z,0.70
2023-01-25T22:05:47.272Z,0.60
2023-01-25T22:07:47.149Z,0.60
2023-01-25T22:09:47.234Z,0.70
2023-01-25T22:11:47.325Z,0.40
2023-01-25T22:14:17.177Z,0.50
2023-01-25T22:16:17.267Z,0.70
2023-01-25T22:18:17.239Z,0.70
2023-01-25T22:20:17.315Z,0.60
2023-01-25T22:22:17.230Z,0.60
2023-01-25T22:24:17.320Z,0.80
2023-01-25T22:26:17.261Z,0.70
2023-01-25T22:28:17.395Z,0.70
2023-01-25T22:30:17.355Z,0.70
2023-01-25T22:32:17.357Z,0.70
2023-01-25T22:34:17.304Z,0.60
2023-01-25T22:36:17.337Z,0.50
2023-01-25T22:38:17.307Z,0.60
2023-01-25T22:40:17.311Z,0.90
2023-01-25T22:42:17.248Z,0.70
2023-01-25T22:44:17.269Z,0.60
2023-01-25T22:46:17.292Z,0.60
2023-01-25T22:48:17.327Z,0.60
2023-01-25T22:50:17.140Z,0.60
2023-01-25T22:52:17.314Z,0.70
2023-01-25T22:54:17.356Z,0.60
2023-01-25T22:56:17.336Z,0.60
2023-01-25T22:58:17.242Z,0.60
2023-01-25T23:00:17.198Z,0.50
2023-01-25T23:02:17.485Z,0.50
2023-01-25T23:04:17.228Z,0.40
2023-01-25T23:06:17.293Z,0.80
2023-01-25T23:10:26.085Z,0.70
2023-01-25T23:12:26.075Z,0.60
2023-01-25T23:14:26.101Z,0.50
2023-01-25T23:16:26.033Z,0.90
2023-01-25T23:18:26.042Z,0.80
2023-01-25T23:20:26.192Z,0.80
2023-01-25T23:22:26.074Z,0.50
2023-01-25T23:24:26.049Z,0.70
2023-01-25T23:26:26.039Z,0.80
2023-01-25T23:28:26.104Z,0.60
2023-01-25T23:30:26.140Z,0.60
2023-01-25T23:32:26.154Z,0.80
2023-01-25T23:34:26.056Z,0.70
2023-01-25T23:36:26.048Z,0.80
2023-01-25T23:38:26.114Z,0.60
2023-01-25T23:40:26.088Z,0.60
2023-01-25T23:42:26.048Z,0.70
2023-01-25T23:44:26.072Z,0.60
2023-01-25T23:46:26.124Z,0.60
2023-01-25T23:48:26.059Z,0.50
2023-01-25T23:50:26.050Z,0.90
2023-01-25T23:52:26.104Z,0.40
2023-01-25T23:54:26.028Z,0.50
2023-01-25T23:56:26.107Z,0.80
2023-01-25T23:58:26.026Z,0.50
